sensor_id;sensor_type;location;lat;lon;timestamp;pressure;altitude;pressure_sealevel;temperature
63588;BMP280;49966;46.896;18.004;2023-06-19T00:00:17;100317.38;;;17.31
63588;BMP280;49966;46.896;18.004;2023-06-19T00:02:45;100324.69;;;17.23
63588;BMP280;49966;46.896;18.004;2023-06-19T00:05:14;100312.09;;;17.17
63588;BMP280;49966;46.896;18.004;2023-06-19T00:07:42;100330.88;;;17.06
63588;BMP280;49966;46.896;18.004;2023-06-19T00:10:11;100315.97;;;16.98
63588;BMP280;49966;46.896;18.004;2023-06-19T00:12:39;100319.06;;;16.96
63588;BMP280;49966;46.896;18.004;2023-06-19T00:15:10;100309.50;;;16.92
63588;BMP280;49966;46.896;18.004;2023-06-19T00:17:38;100317.13;;;16.90
63588;BMP280;49966;46.896;18.004;2023-06-19T00:20:07;100317.91;;;16.90
63588;BMP280;49966;46.896;18.004;2023-06-19T00:22:36;100316.75;;;16.98
63588;BMP280;49966;46.896;18.004;2023-06-19T00:25:04;100312.94;;;16.99
63588;BMP280;49966;46.896;18.004;2023-06-19T00:27:33;100304.09;;;17.02
63588;BMP280;49966;46.896;18.004;2023-06-19T00:30:01;100309.41;;;17.13
63588;BMP280;49966;46.896;18.004;2023-06-19T00:32:31;100312.50;;;17.08
63588;BMP280;49966;46.896;18.004;2023-06-19T00:35:13;100320.91;;;17.14
63588;BMP280;49966;46.896;18.004;2023-06-19T00:37:42;100315.91;;;17.16
63588;BMP280;49966;46.896;18.004;2023-06-19T00:40:17;100309.03;;;17.11
63588;BMP280;49966;46.896;18.004;2023-06-19T00:42:46;100308.25;;;17.11
63588;BMP280;49966;46.896;18.004;2023-06-19T00:45:15;100305.63;;;17.07
63588;BMP280;49966;46.896;18.004;2023-06-19T00:47:45;100294.16;;;17.03
63588;BMP280;49966;46.896;18.004;2023-06-19T00:50:13;100298.38;;;16.97
63588;BMP280;49966;46.896;18.004;2023-06-19T00:52:42;100297.66;;;16.89
63588;BMP280;49966;46.896;18.004;2023-06-19T00:55:11;100296.13;;;16.81
63588;BMP280;49966;46.896;18.004;2023-06-19T00:57:40;100299.97;;;16.76
63588;BMP280;49966;46.896;18.004;2023-06-19T01:00:10;100283.94;;;16.66
63588;BMP280;49966;46.896;18.004;2023-06-19T01:02:39;100302.28;;;16.57
63588;BMP280;49966;46.896;18.004;2023-06-19T01:05:09;100293.09;;;16.50
63588;BMP280;49966;46.896;18.004;2023-06-19T01:07:44;100289.28;;;16.55
63588;BMP280;49966;46.896;18.004;2023-06-19T01:10:16;100282.03;;;16.52
63588;BMP280;49966;46.896;18.004;2023-06-19T01:12:50;100273.59;;;16.57
63588;BMP280;49966;46.896;18.004;2023-06-19T01:15:22;100260.59;;;16.55
63588;BMP280;49966;46.896;18.004;2023-06-19T01:17:50;100277.41;;;16.67
63588;BMP280;49966;46.896;18.004;2023-06-19T01:20:21;100269.00;;;16.72
63588;BMP280;49966;46.896;18.004;2023-06-19T01:22:51;100273.97;;;16.73
63588;BMP280;49966;46.896;18.004;2023-06-19T01:25:24;100271.31;;;16.66
63588;BMP280;49966;46.896;18.004;2023-06-19T01:27:52;100265.56;;;16.64
63588;BMP280;49966;46.896;18.004;2023-06-19T01:30:21;100275.16;;;16.58
63588;BMP280;49966;46.896;18.004;2023-06-19T01:32:53;100279.72;;;16.58
63588;BMP280;49966;46.896;18.004;2023-06-19T01:35:31;100267.50;;;16.57
63588;BMP280;49966;46.896;18.004;2023-06-19T01:38:02;100267.84;;;16.48
63588;BMP280;49966;46.896;18.004;2023-06-19T01:40:31;100255.66;;;16.47
63588;BMP280;49966;46.896;18.004;2023-06-19T01:43:00;100260.63;;;16.45
63588;BMP280;49966;46.896;18.004;2023-06-19T01:45:30;100266.34;;;16.40
63588;BMP280;49966;46.896;18.004;2023-06-19T01:47:59;100257.19;;;16.34
63588;BMP280;49966;46.896;18.004;2023-06-19T01:50:27;100248.78;;;16.32
63588;BMP280;49966;46.896;18.004;2023-06-19T01:52:55;100246.84;;;16.32
63588;BMP280;49966;46.896;18.004;2023-06-19T01:55:25;100249.53;;;16.32
63588;BMP280;49966;46.896;18.004;2023-06-19T01:57:53;100244.94;;;16.33
63588;BMP280;49966;46.896;18.004;2023-06-19T02:06:14;100246.09;;;16.39
63588;BMP280;49966;46.896;18.004;2023-06-19T02:08:43;100246.88;;;16.46
63588;BMP280;49966;46.896;18.004;2023-06-19T02:11:13;100256.78;;;16.49
63588;BMP280;49966;46.896;18.004;2023-06-19T02:13:41;100248.78;;;16.46
63588;BMP280;49966;46.896;18.004;2023-06-19T02:16:10;100248.38;;;16.44
63588;BMP280;49966;46.896;18.004;2023-06-19T02:18:38;100246.84;;;16.43
63588;BMP280;49966;46.896;18.004;2023-06-19T02:21:06;100242.66;;;16.38
63588;BMP280;49966;46.896;18.004;2023-06-19T02:23:35;100241.16;;;16.41
63588;BMP280;49966;46.896;18.004;2023-06-19T02:26:03;100240.75;;;16.39
63588;BMP280;49966;46.896;18.004;2023-06-19T02:28:33;100233.84;;;16.38
63588;BMP280;49966;46.896;18.004;2023-06-19T02:31:01;100233.09;;;16.37
63588;BMP280;49966;46.896;18.004;2023-06-19T02:33:29;100236.16;;;16.39
63588;BMP280;49966;46.896;18.004;2023-06-19T02:35:59;100230.41;;;16.44
63588;BMP280;49966;46.896;18.004;2023-06-19T02:38:28;100225.81;;;16.38
63588;BMP280;49966;46.896;18.004;2023-06-19T02:40:57;100234.63;;;16.27
63588;BMP280;49966;46.896;18.004;2023-06-19T02:43:28;100226.25;;;16.18
63588;BMP280;49966;46.896;18.004;2023-06-19T02:45:58;100235.78;;;16.19
63588;BMP280;49966;46.896;18.004;2023-06-19T02:48:27;100241.50;;;16.21
63588;BMP280;49966;46.896;18.004;2023-06-19T02:50:55;100236.94;;;16.22
63588;BMP280;49966;46.896;18.004;2023-06-19T02:53:24;100239.22;;;16.16
63588;BMP280;49966;46.896;18.004;2023-06-19T02:55:53;100238.47;;;16.12
63588;BMP280;49966;46.896;18.004;2023-06-19T02:58:21;100227.78;;;16.01
63588;BMP280;49966;46.896;18.004;2023-06-19T03:00:49;100237.34;;;16.02
63588;BMP280;49966;46.896;18.004;2023-06-19T03:03:19;100233.13;;;15.98
63588;BMP280;49966;46.896;18.004;2023-06-19T03:05:47;100240.03;;;16.02
63588;BMP280;49966;46.896;18.004;2023-06-19T03:08:15;100243.44;;;16.10
63588;BMP280;49966;46.896;18.004;2023-06-19T03:10:44;100230.81;;;16.11
63588;BMP280;49966;46.896;18.004;2023-06-19T03:13:12;100233.13;;;16.09
63588;BMP280;49966;46.896;18.004;2023-06-19T03:15:41;100238.09;;;16.14
63588;BMP280;49966;46.896;18.004;2023-06-19T03:18:09;100242.66;;;16.17
63588;BMP280;49966;46.896;18.004;2023-06-19T03:20:39;100231.97;;;16.17
63588;BMP280;49966;46.896;18.004;2023-06-19T03:23:07;100233.91;;;16.13
63588;BMP280;49966;46.896;18.004;2023-06-19T03:25:35;100231.97;;;16.13
63588;BMP280;49966;46.896;18.004;2023-06-19T03:28:04;100240.78;;;16.14
63588;BMP280;49966;46.896;18.004;2023-06-19T03:30:32;100227.78;;;16.05
63588;BMP280;49966;46.896;18.004;2023-06-19T03:33:01;100231.22;;;16.09
63588;BMP280;49966;46.896;18.004;2023-06-19T03:35:29;100236.56;;;16.13
63588;BMP280;49966;46.896;18.004;2023-06-19T03:37:59;100238.47;;;16.12
63588;BMP280;49966;46.896;18.004;2023-06-19T03:40:27;100249.16;;;16.12
63588;BMP280;49966;46.896;18.004;2023-06-19T03:42:58;100244.22;;;16.18
63588;BMP280;49966;46.896;18.004;2023-06-19T03:45:26;100248.44;;;16.26
63588;BMP280;49966;46.896;18.004;2023-06-19T03:47:54;100252.25;;;16.36
63588;BMP280;49966;46.896;18.004;2023-06-19T03:50:23;100259.09;;;16.44
63588;BMP280;49966;46.896;18.004;2023-06-19T03:52:53;100262.13;;;16.60
63588;BMP280;49966;46.896;18.004;2023-06-19T03:55:23;100264.06;;;16.63
63588;BMP280;49966;46.896;18.004;2023-06-19T03:57:51;100256.00;;;16.74
63588;BMP280;49966;46.896;18.004;2023-06-19T04:00:19;100246.03;;;16.74
63588;BMP280;49966;46.896;18.004;2023-06-19T04:02:48;100248.28;;;16.87
63588;BMP280;49966;46.896;18.004;2023-06-19T04:05:17;100252.06;;;17.00
63588;BMP280;49966;46.896;18.004;2023-06-19T04:07:46;100252.41;;;17.13
63588;BMP280;49966;46.896;18.004;2023-06-19T04:10:15;100250.06;;;17.25
63588;BMP280;49966;46.896;18.004;2023-06-19T04:12:44;100248.13;;;17.29
63588;BMP280;49966;46.896;18.004;2023-06-19T04:15:14;100252.28;;;17.38
63588;BMP280;49966;46.896;18.004;2023-06-19T04:17:43;100251.78;;;17.53
63588;BMP280;49966;46.896;18.004;2023-06-19T04:20:11;100259.34;;;17.69
63588;BMP280;49966;46.896;18.004;2023-06-19T04:22:40;100256.56;;;17.83
63588;BMP280;49966;46.896;18.004;2023-06-19T04:25:09;100271.06;;;17.93
63588;BMP280;49966;46.896;18.004;2023-06-19T04:27:38;100266.38;;;18.01
63588;BMP280;49966;46.896;18.004;2023-06-19T04:30:09;100274.00;;;18.06
63588;BMP280;49966;46.896;18.004;2023-06-19T04:32:37;100272.44;;;18.12
63588;BMP280;49966;46.896;18.004;2023-06-19T04:35:08;100268.59;;;18.13
63588;BMP280;49966;46.896;18.004;2023-06-19T04:37:37;100262.81;;;18.15
63588;BMP280;49966;46.896;18.004;2023-06-19T04:40:06;100264.00;;;18.14
63588;BMP280;49966;46.896;18.004;2023-06-19T04:42:35;100276.66;;;18.13
63588;BMP280;49966;46.896;18.004;2023-06-19T04:45:07;100268.22;;;18.11
63588;BMP280;49966;46.896;18.004;2023-06-19T04:48:00;100270.50;;;18.12
63588;BMP280;49966;46.896;18.004;2023-06-19T04:51:06;100278.13;;;18.18
63588;BMP280;49966;46.896;18.004;2023-06-19T04:53:35;100282.31;;;18.22
63588;BMP280;49966;46.896;18.004;2023-06-19T04:56:04;100274.59;;;18.28
63588;BMP280;49966;46.896;18.004;2023-06-19T04:58:32;100278.34;;;18.37
63588;BMP280;49966;46.896;18.004;2023-06-19T05:01:02;100283.19;;;18.50
63588;BMP280;49966;46.896;18.004;2023-06-19T05:03:31;100287.31;;;18.61
63588;BMP280;49966;46.896;18.004;2023-06-19T05:05:59;100288.66;;;18.77
63588;BMP280;49966;46.896;18.004;2023-06-19T05:08:27;100299.22;;;18.95
63588;BMP280;49966;46.896;18.004;2023-06-19T05:10:56;100294.44;;;19.09
63588;BMP280;49966;46.896;18.004;2023-06-19T05:13:24;100304.59;;;19.25
63588;BMP280;49966;46.896;18.004;2023-06-19T05:15:53;100300.16;;;19.42
63588;BMP280;49966;46.896;18.004;2023-06-19T05:18:24;100313.00;;;19.58
63588;BMP280;49966;46.896;18.004;2023-06-19T05:20:52;100317.38;;;19.71
63588;BMP280;49966;46.896;18.004;2023-06-19T05:23:21;100325.63;;;19.88
63588;BMP280;49966;46.896;18.004;2023-06-19T05:25:49;100348.06;;;20.48
63588;BMP280;49966;46.896;18.004;2023-06-19T05:28:20;100360.97;;;22.01
63588;BMP280;49966;46.896;18.004;2023-06-19T05:30:50;100370.00;;;23.96
63588;BMP280;49966;46.896;18.004;2023-06-19T05:33:18;100394.88;;;25.81
63588;BMP280;49966;46.896;18.004;2023-06-19T05:35:48;100405.84;;;27.35
63588;BMP280;49966;46.896;18.004;2023-06-19T05:38:21;100424.22;;;28.86
63588;BMP280;49966;46.896;18.004;2023-06-19T05:40:50;100418.03;;;29.26
63588;BMP280;49966;46.896;18.004;2023-06-19T05:43:18;100411.03;;;29.86
63588;BMP280;49966;46.896;18.004;2023-06-19T05:45:47;100425.16;;;30.36
63588;BMP280;49966;46.896;18.004;2023-06-19T05:48:15;100433.78;;;30.98
63588;BMP280;49966;46.896;18.004;2023-06-19T05:50:44;100430.78;;;31.44
63588;BMP280;49966;46.896;18.004;2023-06-19T05:53:13;100428.63;;;32.04
63588;BMP280;49966;46.896;18.004;2023-06-19T05:55:44;100438.09;;;32.53
63588;BMP280;49966;46.896;18.004;2023-06-19T05:58:12;100422.91;;;32.41
63588;BMP280;49966;46.896;18.004;2023-06-19T06:00:40;100439.13;;;32.05
63588;BMP280;49966;46.896;18.004;2023-06-19T06:03:09;100450.50;;;32.82
63588;BMP280;49966;46.896;18.004;2023-06-19T06:05:39;100447.91;;;33.12
63588;BMP280;49966;46.896;18.004;2023-06-19T06:08:07;100467.78;;;33.35
63588;BMP280;49966;46.896;18.004;2023-06-19T06:10:37;100458.97;;;33.53
63588;BMP280;49966;46.896;18.004;2023-06-19T06:13:06;100473.75;;;33.44
63588;BMP280;49966;46.896;18.004;2023-06-19T06:15:34;100479.22;;;33.56
63588;BMP280;49966;46.896;18.004;2023-06-19T06:18:02;100466.44;;;33.06
63588;BMP280;49966;46.896;18.004;2023-06-19T06:20:31;100482.03;;;32.03
63588;BMP280;49966;46.896;18.004;2023-06-19T06:22:59;100469.81;;;32.21
63588;BMP280;49966;46.896;18.004;2023-06-19T06:25:27;100477.00;;;32.01
63588;BMP280;49966;46.896;18.004;2023-06-19T06:27:57;100476.03;;;32.15
63588;BMP280;49966;46.896;18.004;2023-06-19T06:30:25;100456.38;;;31.30
63588;BMP280;49966;46.896;18.004;2023-06-19T06:32:54;100459.69;;;30.97
63588;BMP280;49966;46.896;18.004;2023-06-19T06:35:22;100451.75;;;30.61
63588;BMP280;49966;46.896;18.004;2023-06-19T06:37:51;100439.00;;;29.95
63588;BMP280;49966;46.896;18.004;2023-06-19T06:40:19;100441.38;;;29.42
63588;BMP280;49966;46.896;18.004;2023-06-19T06:42:48;100445.28;;;28.85
63588;BMP280;49966;46.896;18.004;2023-06-19T06:45:18;100439.75;;;28.21
63588;BMP280;49966;46.896;18.004;2023-06-19T06:47:46;100429.25;;;27.75
63588;BMP280;49966;46.896;18.004;2023-06-19T06:50:15;100431.34;;;27.95
63588;BMP280;49966;46.896;18.004;2023-06-19T06:52:43;100432.31;;;28.06
63588;BMP280;49966;46.896;18.004;2023-06-19T06:55:12;100445.53;;;27.99
63588;BMP280;49966;46.896;18.004;2023-06-19T06:57:40;100444.53;;;27.48
63588;BMP280;49966;46.896;18.004;2023-06-19T07:00:10;100449.97;;;27.96
63588;BMP280;49966;46.896;18.004;2023-06-19T07:02:40;100449.53;;;27.88
63588;BMP280;49966;46.896;18.004;2023-06-19T07:05:10;100456.97;;;27.64
63588;BMP280;49966;46.896;18.004;2023-06-19T07:07:38;100461.38;;;27.38
63588;BMP280;49966;46.896;18.004;2023-06-19T07:10:07;100451.41;;;27.35
63588;BMP280;49966;46.896;18.004;2023-06-19T07:12:44;100449.63;;;27.55
63588;BMP280;49966;46.896;18.004;2023-06-19T07:15:12;100441.16;;;27.29
63588;BMP280;49966;46.896;18.004;2023-06-19T07:17:43;100437.44;;;27.18
63588;BMP280;49966;46.896;18.004;2023-06-19T07:20:12;100429.56;;;27.44
63588;BMP280;49966;46.896;18.004;2023-06-19T07:22:40;100432.06;;;27.56
63588;BMP280;49966;46.896;18.004;2023-06-19T07:25:10;100434.84;;;27.71
63588;BMP280;49966;46.896;18.004;2023-06-19T07:27:40;100434.59;;;27.36
63588;BMP280;49966;46.896;18.004;2023-06-19T07:30:09;100436.75;;;27.56
63588;BMP280;49966;46.896;18.004;2023-06-19T07:32:43;100423.47;;;27.73
63588;BMP280;49966;46.896;18.004;2023-06-19T07:35:12;100427.91;;;27.13
63588;BMP280;49966;46.896;18.004;2023-06-19T07:37:44;100432.88;;;27.24
63588;BMP280;49966;46.896;18.004;2023-06-19T07:40:12;100427.75;;;27.50
63588;BMP280;49966;46.896;18.004;2023-06-19T07:42:40;100421.56;;;27.64
63588;BMP280;49966;46.896;18.004;2023-06-19T07:45:11;100425.41;;;27.96
63588;BMP280;49966;46.896;18.004;2023-06-19T07:47:40;100411.44;;;28.03
63588;BMP280;49966;46.896;18.004;2023-06-19T07:50:10;100411.72;;;28.20
63588;BMP280;49966;46.896;18.004;2023-06-19T07:52:39;100412.97;;;28.34
63588;BMP280;49966;46.896;18.004;2023-06-19T07:55:08;100423.47;;;28.41
63588;BMP280;49966;46.896;18.004;2023-06-19T07:57:36;100394.59;;;28.19
63588;BMP280;49966;46.896;18.004;2023-06-19T08:00:05;100408.16;;;28.14
63588;BMP280;49966;46.896;18.004;2023-06-19T08:02:38;100408.66;;;28.12
63588;BMP280;49966;46.896;18.004;2023-06-19T08:05:08;100412.06;;;27.98
63588;BMP280;49966;46.896;18.004;2023-06-19T08:07:38;100418.78;;;27.97
63588;BMP280;49966;46.896;18.004;2023-06-19T08:10:07;100415.78;;;28.25
63588;BMP280;49966;46.896;18.004;2023-06-19T08:12:41;100426.09;;;28.50
63588;BMP280;49966;46.896;18.004;2023-06-19T08:15:10;100401.84;;;28.23
63588;BMP280;49966;46.896;18.004;2023-06-19T08:17:40;100416.06;;;28.27
63588;BMP280;49966;46.896;18.004;2023-06-19T08:20:09;100418.63;;;27.92
63588;BMP280;49966;46.896;18.004;2023-06-19T08:22:39;100421.31;;;27.77
63588;BMP280;49966;46.896;18.004;2023-06-19T08:25:08;100417.47;;;27.69
63588;BMP280;49966;46.896;18.004;2023-06-19T08:27:36;100413.88;;;28.16
63588;BMP280;49966;46.896;18.004;2023-06-19T08:30:05;100418.69;;;28.21
63588;BMP280;49966;46.896;18.004;2023-06-19T08:32:34;100412.88;;;28.28
63588;BMP280;49966;46.896;18.004;2023-06-19T08:35:02;100401.81;;;27.78
63588;BMP280;49966;46.896;18.004;2023-06-19T08:37:31;100409.91;;;27.64
63588;BMP280;49966;46.896;18.004;2023-06-19T08:40:00;100411.25;;;28.36
63588;BMP280;49966;46.896;18.004;2023-06-19T08:42:31;100410.97;;;28.49
63588;BMP280;49966;46.896;18.004;2023-06-19T08:44:59;100423.59;;;28.46
63588;BMP280;49966;46.896;18.004;2023-06-19T08:47:29;100416.44;;;28.64
63588;BMP280;49966;46.896;18.004;2023-06-19T08:49:58;100417.56;;;28.57
63588;BMP280;49966;46.896;18.004;2023-06-19T08:52:28;100412.38;;;28.30
63588;BMP280;49966;46.896;18.004;2023-06-19T08:54:57;100414.09;;;28.12
63588;BMP280;49966;46.896;18.004;2023-06-19T08:57:34;100408.38;;;28.25
63588;BMP280;49966;46.896;18.004;2023-06-19T09:00:04;100415.31;;;28.41
63588;BMP280;49966;46.896;18.004;2023-06-19T09:02:39;100406.56;;;28.22
63588;BMP280;49966;46.896;18.004;2023-06-19T09:05:13;100423.31;;;28.15
63588;BMP280;49966;46.896;18.004;2023-06-19T09:07:42;100411.47;;;28.18
63588;BMP280;49966;46.896;18.004;2023-06-19T09:10:15;100406.44;;;28.16
63588;BMP280;49966;46.896;18.004;2023-06-19T09:12:56;100415.31;;;28.26
63588;BMP280;49966;46.896;18.004;2023-06-19T09:15:27;100405.22;;;28.32
63588;BMP280;49966;46.896;18.004;2023-06-19T09:18:00;100420.56;;;28.30
63588;BMP280;49966;46.896;18.004;2023-06-19T09:20:29;100428.28;;;28.61
63588;BMP280;49966;46.896;18.004;2023-06-19T09:22:58;100417.38;;;28.61
63588;BMP280;49966;46.896;18.004;2023-06-19T09:25:27;100407.44;;;28.28
63588;BMP280;49966;46.896;18.004;2023-06-19T09:27:57;100389.81;;;28.29
63588;BMP280;49966;46.896;18.004;2023-06-19T09:30:26;100402.06;;;28.34
63588;BMP280;49966;46.896;18.004;2023-06-19T09:32:54;100411.25;;;28.36
63588;BMP280;49966;46.896;18.004;2023-06-19T09:35:22;100407.38;;;28.58
63588;BMP280;49966;46.896;18.004;2023-06-19T09:37:51;100405.50;;;28.78
63588;BMP280;49966;46.896;18.004;2023-06-19T09:40:20;100402.84;;;28.84
63588;BMP280;49966;46.896;18.004;2023-06-19T09:42:52;100404.75;;;28.63
63588;BMP280;49966;46.896;18.004;2023-06-19T09:45:23;100404.56;;;28.52
63588;BMP280;49966;46.896;18.004;2023-06-19T09:47:54;100411.34;;;28.57
63588;BMP280;49966;46.896;18.004;2023-06-19T09:50:26;100407.75;;;28.65
63588;BMP280;49966;46.896;18.004;2023-06-19T09:52:55;100404.38;;;28.26
63588;BMP280;49966;46.896;18.004;2023-06-19T09:55:24;100401.66;;;28.26
63588;BMP280;49966;46.896;18.004;2023-06-19T09:57:56;100417.16;;;28.05
63588;BMP280;49966;46.896;18.004;2023-06-19T10:00:26;100418.19;;;27.93
63588;BMP280;49966;46.896;18.004;2023-06-19T10:02:58;100397.63;;;28.36
63588;BMP280;49966;46.896;18.004;2023-06-19T10:05:30;100396.22;;;28.56
63588;BMP280;49966;46.896;18.004;2023-06-19T10:07:59;100396.31;;;28.61
63588;BMP280;49966;46.896;18.004;2023-06-19T10:10:29;100399.38;;;28.69
63588;BMP280;49966;46.896;18.004;2023-06-19T10:13:12;100392.00;;;28.75
63588;BMP280;49966;46.896;18.004;2023-06-19T10:15:42;100404.84;;;28.69
63588;BMP280;49966;46.896;18.004;2023-06-19T10:18:14;100389.09;;;28.78
63588;BMP280;49966;46.896;18.004;2023-06-19T10:20:44;100399.31;;;28.98
63588;BMP280;49966;46.896;18.004;2023-06-19T10:23:16;100394.31;;;28.76
63588;BMP280;49966;46.896;18.004;2023-06-19T10:25:47;100364.72;;;28.75
63588;BMP280;49966;46.896;18.004;2023-06-19T10:28:17;100389.50;;;28.57
63588;BMP280;49966;46.896;18.004;2023-06-19T10:30:52;100378.81;;;28.38
63588;BMP280;49966;46.896;18.004;2023-06-19T10:33:20;100389.81;;;28.59
63588;BMP280;49966;46.896;18.004;2023-06-19T10:35:49;100375.50;;;28.64
63588;BMP280;49966;46.896;18.004;2023-06-19T10:38:17;100386.50;;;28.69
63588;BMP280;49966;46.896;18.004;2023-06-19T10:40:45;100382.47;;;28.65
63588;BMP280;49966;46.896;18.004;2023-06-19T10:43:20;100377.06;;;28.70
63588;BMP280;49966;46.896;18.004;2023-06-19T10:45:51;100381.25;;;28.51
63588;BMP280;49966;46.896;18.004;2023-06-19T10:48:21;100366.56;;;28.63
63588;BMP280;49966;46.896;18.004;2023-06-19T10:50:50;100374.81;;;28.69
63588;BMP280;49966;46.896;18.004;2023-06-19T10:53:26;100379.00;;;28.85
63588;BMP280;49966;46.896;18.004;2023-06-19T10:55:55;100389.97;;;29.05
63588;BMP280;49966;46.896;18.004;2023-06-19T10:58:24;100386.88;;;28.97
63588;BMP280;49966;46.896;18.004;2023-06-19T11:00:53;100369.97;;;29.14
63588;BMP280;49966;46.896;18.004;2023-06-19T11:03:22;100397.28;;;29.14
63588;BMP280;49966;46.896;18.004;2023-06-19T11:05:50;100401.94;;;29.28
63588;BMP280;49966;46.896;18.004;2023-06-19T11:08:19;100397.41;;;29.65
63588;BMP280;49966;46.896;18.004;2023-06-19T11:10:48;100398.44;;;29.94
63588;BMP280;49966;46.896;18.004;2023-06-19T11:13:18;100390.19;;;29.42
63588;BMP280;49966;46.896;18.004;2023-06-19T11:15:48;100388.88;;;29.17
63588;BMP280;49966;46.896;18.004;2023-06-19T11:18:19;100408.38;;;29.45
63588;BMP280;49966;46.896;18.004;2023-06-19T11:20:51;100390.88;;;29.57
63588;BMP280;49966;46.896;18.004;2023-06-19T11:23:25;100388.25;;;29.68
63588;BMP280;49966;46.896;18.004;2023-06-19T11:25:53;100392.91;;;29.88
63588;BMP280;49966;46.896;18.004;2023-06-19T11:28:27;100396.06;;;30.07
63588;BMP280;49966;46.896;18.004;2023-06-19T11:30:58;100390.19;;;29.88
63588;BMP280;49966;46.896;18.004;2023-06-19T11:33:28;100392.31;;;29.79
63588;BMP280;49966;46.896;18.004;2023-06-19T11:36:00;100397.84;;;30.10
63588;BMP280;49966;46.896;18.004;2023-06-19T11:38:31;100398.66;;;30.22
63588;BMP280;49966;46.896;18.004;2023-06-19T11:41:04;100401.09;;;30.14
63588;BMP280;49966;46.896;18.004;2023-06-19T11:43:35;100387.78;;;30.27
63588;BMP280;49966;46.896;18.004;2023-06-19T11:46:05;100385.41;;;30.09
63588;BMP280;49966;46.896;18.004;2023-06-19T11:48:37;100391.06;;;30.00
63588;BMP280;49966;46.896;18.004;2023-06-19T11:51:06;100384.03;;;30.25
63588;BMP280;49966;46.896;18.004;2023-06-19T11:53:34;100383.44;;;30.41
63588;BMP280;49966;46.896;18.004;2023-06-19T11:56:03;100381.88;;;30.35
63588;BMP280;49966;46.896;18.004;2023-06-19T11:58:32;100388.69;;;30.50
63588;BMP280;49966;46.896;18.004;2023-06-19T12:01:00;100386.53;;;30.60
63588;BMP280;49966;46.896;18.004;2023-06-19T12:03:29;100375.47;;;30.43
63588;BMP280;49966;46.896;18.004;2023-06-19T12:05:59;100394.09;;;30.39
63588;BMP280;49966;46.896;18.004;2023-06-19T12:08:28;100383.84;;;30.34
63588;BMP280;49966;46.896;18.004;2023-06-19T12:10:56;100369.75;;;30.10
63588;BMP280;49966;46.896;18.004;2023-06-19T12:13:24;100386.84;;;29.79
63588;BMP280;49966;46.896;18.004;2023-06-19T12:15:52;100366.69;;;29.50
63588;BMP280;49966;46.896;18.004;2023-06-19T12:18:20;100370.31;;;29.42
63588;BMP280;49966;46.896;18.004;2023-06-19T12:20:49;100373.19;;;29.12
63588;BMP280;49966;46.896;18.004;2023-06-19T12:23:18;100363.00;;;29.33
63588;BMP280;49966;46.896;18.004;2023-06-19T12:25:47;100369.00;;;29.37
63588;BMP280;49966;46.896;18.004;2023-06-19T12:28:15;100371.47;;;29.15
63588;BMP280;49966;46.896;18.004;2023-06-19T12:30:45;100374.09;;;29.24
63588;BMP280;49966;46.896;18.004;2023-06-19T12:33:15;100353.72;;;29.45
63588;BMP280;49966;46.896;18.004;2023-06-19T12:35:45;100349.22;;;29.68
63588;BMP280;49966;46.896;18.004;2023-06-19T12:38:13;100365.44;;;29.72
63588;BMP280;49966;46.896;18.004;2023-06-19T12:40:43;100360.72;;;29.52
63588;BMP280;49966;46.896;18.004;2023-06-19T12:43:11;100351.06;;;29.77
63588;BMP280;49966;46.896;18.004;2023-06-19T12:45:40;100358.22;;;30.00
63588;BMP280;49966;46.896;18.004;2023-06-19T12:48:10;100362.34;;;29.90
63588;BMP280;49966;46.896;18.004;2023-06-19T12:50:38;100352.97;;;29.96
63588;BMP280;49966;46.896;18.004;2023-06-19T12:53:06;100358.56;;;29.82
63588;BMP280;49966;46.896;18.004;2023-06-19T12:55:34;100359.94;;;29.97
63588;BMP280;49966;46.896;18.004;2023-06-19T12:58:24;100345.22;;;29.89
63588;BMP280;49966;46.896;18.004;2023-06-19T13:00:53;100359.34;;;30.19
63588;BMP280;49966;46.896;18.004;2023-06-19T13:03:21;100351.75;;;30.29
63588;BMP280;49966;46.896;18.004;2023-06-19T13:05:50;100337.75;;;30.21
63588;BMP280;49966;46.896;18.004;2023-06-19T13:08:18;100346.81;;;30.33
63588;BMP280;49966;46.896;18.004;2023-06-19T13:10:46;100350.09;;;30.43
63588;BMP280;49966;46.896;18.004;2023-06-19T13:13:14;100347.53;;;30.71
63588;BMP280;49966;46.896;18.004;2023-06-19T13:15:44;100353.88;;;30.51
63588;BMP280;49966;46.896;18.004;2023-06-19T13:18:12;100340.91;;;30.46
63588;BMP280;49966;46.896;18.004;2023-06-19T13:20:41;100345.69;;;30.56
63588;BMP280;49966;46.896;18.004;2023-06-19T13:23:09;100350.56;;;30.36
63588;BMP280;49966;46.896;18.004;2023-06-19T13:25:39;100336.72;;;30.19
63588;BMP280;49966;46.896;18.004;2023-06-19T13:28:07;100332.72;;;30.14
63588;BMP280;49966;46.896;18.004;2023-06-19T13:30:35;100332.91;;;30.05
63588;BMP280;49966;46.896;18.004;2023-06-19T13:33:06;100342.13;;;30.08
63588;BMP280;49966;46.896;18.004;2023-06-19T13:35:34;100337.19;;;29.80
63588;BMP280;49966;46.896;18.004;2023-06-19T13:38:03;100333.69;;;29.80
63588;BMP280;49966;46.896;18.004;2023-06-19T13:40:31;100323.75;;;29.56
63588;BMP280;49966;46.896;18.004;2023-06-19T13:42:59;100319.22;;;29.48
63588;BMP280;49966;46.896;18.004;2023-06-19T13:45:29;100320.03;;;29.33
63588;BMP280;49966;46.896;18.004;2023-06-19T13:47:58;100318.16;;;29.39
63588;BMP280;49966;46.896;18.004;2023-06-19T13:50:28;100322.44;;;29.26
63588;BMP280;49966;46.896;18.004;2023-06-19T13:52:56;100336.13;;;29.52
63588;BMP280;49966;46.896;18.004;2023-06-19T13:55:25;100328.91;;;29.28
63588;BMP280;49966;46.896;18.004;2023-06-19T13:57:53;100333.94;;;29.09
63588;BMP280;49966;46.896;18.004;2023-06-19T14:00:21;100335.00;;;28.97
63588;BMP280;49966;46.896;18.004;2023-06-19T14:02:50;100337.09;;;28.88